createdAt,value
2018-02-13T00:00:09.398Z,-0.16
2018-02-13T00:02:37.828Z,-0.25
2018-02-13T00:05:06.184Z,-0.44
2018-02-13T00:07:34.582Z,-0.48
2018-02-13T00:10:02.965Z,-0.38
2018-02-13T00:12:31.293Z,-0.29
2018-02-13T00:14:59.717Z,-0.26
2018-02-13T00:17:28.045Z,-0.18
2018-02-13T00:19:56.470Z,-0.16
2018-02-13T00:22:24.845Z,-0.15
2018-02-13T00:24:53.198Z,-0.17
2018-02-13T00:27:21.602Z,-0.10
2018-02-13T00:29:49.978Z,-0.06
2018-02-13T00:32:18.309Z,-0.03
2018-02-13T00:34:46.733Z,-0.18
2018-02-13T00:37:15.069Z,-0.20
2018-02-13T00:39:43.416Z,-0.16
2018-02-13T00:42:11.765Z,-0.13
2018-02-13T00:44:40.117Z,-0.09
2018-02-13T00:47:08.448Z,-0.05
2018-02-13T00:49:36.929Z,-0.01
2018-02-13T00:52:05.234Z,-0.02
2018-02-13T00:54:33.657Z,0.05
2018-02-13T00:57:01.982Z,0.04
2018-02-13T00:59:30.405Z,0.04
2018-02-13T01:01:58.729Z,0.04
2018-02-13T01:04:27.157Z,0.07
2018-02-13T01:06:55.481Z,0.03
2018-02-13T01:09:23.825Z,0.02
2018-02-13T01:11:52.152Z,0.00
2018-02-13T01:14:20.501Z,-0.13
2018-02-13T01:16:48.833Z,-0.19
2018-02-13T01:19:17.221Z,-0.14
2018-02-13T01:21:45.551Z,-0.17
2018-02-13T01:24:13.901Z,-0.18
2018-02-13T01:26:42.246Z,-0.15
2018-02-13T01:29:10.601Z,-0.11
2018-02-13T01:31:39.005Z,-0.08
2018-02-13T01:34:07.353Z,-0.13
2018-02-13T01:36:35.685Z,-0.04
2018-02-13T01:39:04.037Z,-0.05
2018-02-13T01:41:32.369Z,-0.08
2018-02-13T01:44:00.725Z,-0.03
2018-02-13T01:46:29.062Z,-0.05
2018-02-13T01:48:57.414Z,-0.04
2018-02-13T01:51:25.741Z,0.02
2018-02-13T01:53:54.190Z,0.04
2018-02-13T01:56:22.518Z,0.07
2018-02-13T01:58:50.838Z,0.04
2018-02-13T02:01:19.182Z,0.05
2018-02-13T02:03:47.505Z,0.09
2018-02-13T02:06:15.848Z,0.09
2018-02-13T02:08:44.206Z,0.09
2018-02-13T02:11:12.522Z,0.07
2018-02-13T02:13:40.858Z,0.11
2018-02-13T02:16:09.202Z,0.12
2018-02-13T02:18:37.520Z,0.10
2018-02-13T02:21:05.892Z,0.13
2018-02-13T02:23:34.229Z,0.10
2018-02-13T02:26:02.577Z,0.09
2018-02-13T02:28:30.961Z,0.02
2018-02-13T02:30:59.314Z,0.00
2018-02-13T02:33:27.645Z,-0.05
2018-02-13T02:35:56.102Z,-0.08
2018-02-13T02:38:24.429Z,-0.09
2018-02-13T02:40:52.781Z,-0.05
2018-02-13T02:43:21.125Z,-0.07
2018-02-13T02:45:49.474Z,-0.01
2018-02-13T02:48:17.803Z,0.01
2018-02-13T02:50:46.258Z,-0.02
2018-02-13T02:53:14.633Z,0.02
2018-02-13T02:55:42.981Z,0.00
2018-02-13T02:58:11.302Z,0.08
2018-02-13T03:00:39.657Z,0.04
2018-02-13T03:03:08.041Z,-0.01
2018-02-13T03:05:36.390Z,-0.08
2018-02-13T03:08:04.722Z,-0.15
2018-02-13T03:10:33.170Z,-0.18
2018-02-13T03:13:01.545Z,-0.24
2018-02-13T03:15:29.902Z,-0.27
2018-02-13T03:17:58.301Z,-0.36
2018-02-13T03:20:26.657Z,-0.36
2018-02-13T03:22:54.990Z,-0.53
2018-02-13T03:25:23.341Z,-0.60
2018-02-13T03:27:51.668Z,-0.75
2018-02-13T03:30:20.089Z,-0.86
2018-02-13T03:32:48.417Z,-0.85
2018-02-13T03:35:16.837Z,-0.83
2018-02-13T03:37:45.217Z,-0.86
2018-02-13T03:40:13.597Z,-0.83
2018-02-13T03:42:41.922Z,-0.87
2018-02-13T03:45:10.273Z,-0.81
2018-02-13T03:47:38.678Z,-0.92
2018-02-13T03:50:07.105Z,-0.97
2018-02-13T03:52:35.442Z,-0.99
2018-02-13T03:55:03.861Z,-1.02
2018-02-13T03:57:32.189Z,-0.97
2018-02-13T04:00:00.622Z,-0.90
2018-02-13T04:02:28.989Z,-0.84
2018-02-13T04:04:57.320Z,-0.68
2018-02-13T04:07:25.673Z,-0.72
2018-02-13T04:09:54.021Z,-0.71
2018-02-13T04:12:22.373Z,-0.72
2018-02-13T04:14:50.774Z,-0.72
2018-02-13T04:17:19.149Z,-0.64
2018-02-13T04:19:47.478Z,-0.62
2018-02-13T04:22:15.833Z,-0.65
2018-02-13T04:24:44.160Z,-0.58
2018-02-13T04:27:12.554Z,-0.62
2018-02-13T04:29:40.913Z,-0.64
2018-02-13T04:32:09.309Z,-0.66
2018-02-13T04:34:37.690Z,-0.61
2018-02-13T04:37:06.042Z,-0.63
2018-02-13T04:39:34.441Z,-0.65
2018-02-13T04:42:02.822Z,-0.68
2018-02-13T04:44:31.197Z,-0.72
2018-02-13T04:46:59.603Z,-0.68
2018-02-13T04:49:27.957Z,-0.59
2018-02-13T04:51:56.328Z,-0.61
2018-02-13T04:54:24.664Z,-0.64
2018-02-13T04:56:53.013Z,-0.69
2018-02-13T04:59:21.361Z,-0.69
2018-02-13T05:01:49.738Z,-0.64
2018-02-13T05:04:18.117Z,-0.60
2018-02-13T05:06:46.465Z,-0.57
2018-02-13T05:09:14.872Z,-0.57
2018-02-13T05:11:43.277Z,-0.56
2018-02-13T05:14:11.610Z,-0.58
2018-02-13T05:16:39.965Z,-0.56
2018-02-13T05:19:08.381Z,-0.58
2018-02-13T05:21:36.762Z,-0.53
2018-02-13T05:24:05.141Z,-0.51
2018-02-13T05:26:33.509Z,-0.54
2018-02-13T05:29:01.905Z,-0.52
2018-02-13T05:31:30.201Z,-0.52
2018-02-13T05:33:58.550Z,-0.46
2018-02-13T05:36:26.921Z,-0.46
2018-02-13T05:38:55.252Z,-0.53
2018-02-13T05:41:23.609Z,-0.58
2018-02-13T05:43:51.937Z,-0.60
2018-02-13T05:46:20.328Z,-0.53
2018-02-13T05:48:48.710Z,-0.47
2018-02-13T05:51:17.754Z,-0.56
2018-02-13T05:53:46.082Z,-0.59
2018-02-13T05:56:14.434Z,-0.64
2018-02-13T05:58:42.829Z,-0.61
2018-02-13T06:01:11.215Z,-0.63
2018-02-13T06:03:39.564Z,-0.59
2018-02-13T06:06:07.969Z,-0.64
2018-02-13T06:08:36.324Z,-0.69
2018-02-13T06:11:04.725Z,-0.72
2018-02-13T06:13:33.101Z,-0.77
2018-02-13T06:16:01.486Z,-0.75
2018-02-13T06:18:29.842Z,-0.73
2018-02-13T06:20:58.274Z,-0.70
2018-02-13T06:23:26.613Z,-0.70
2018-02-13T06:25:54.989Z,-0.62
2018-02-13T06:28:23.446Z,-0.63
2018-02-13T06:30:51.850Z,-0.61
2018-02-13T06:33:20.201Z,-0.51
2018-02-13T06:35:48.529Z,-0.52
2018-02-13T06:38:16.976Z,-0.55
2018-02-13T06:40:45.310Z,-0.45
2018-02-13T06:43:13.662Z,-0.40
2018-02-13T06:45:41.984Z,-0.34
2018-02-13T06:48:10.334Z,-0.21
2018-02-13T06:50:38.674Z,-0.13
2018-02-13T06:53:07.013Z,-0.18
2018-02-13T06:55:35.342Z,-0.12
2018-02-13T06:58:03.685Z,-0.19
2018-02-13T07:00:32.014Z,-0.07
2018-02-13T07:03:00.358Z,-0.09
2018-02-13T07:05:28.704Z,-0.09
2018-02-13T07:07:57.020Z,0.01
2018-02-13T07:10:25.340Z,-0.07
2018-02-13T07:12:53.689Z,-0.05
2018-02-13T07:15:22.010Z,0.05
2018-02-13T07:17:50.349Z,0.15
2018-02-13T07:20:18.665Z,0.22
2018-02-13T07:22:47.010Z,0.26
2018-02-13T07:25:19.061Z,0.33
2018-02-13T07:27:47.618Z,0.37
2018-02-13T07:30:21.456Z,0.33
2018-02-13T07:33:00.885Z,0.37
2018-02-13T07:35:36.236Z,0.35
2018-02-13T07:38:04.565Z,0.40
2018-02-13T07:40:32.913Z,0.34
2018-02-13T07:43:01.261Z,0.40
2018-02-13T07:45:29.581Z,0.59
2018-02-13T07:47:57.924Z,0.67
2018-02-13T07:50:26.244Z,0.73
2018-02-13T07:52:54.585Z,0.81
2018-02-13T07:55:22.914Z,0.88
2018-02-13T07:57:51.258Z,0.91
2018-02-13T08:00:19.577Z,0.91
2018-02-13T08:02:47.918Z,0.96
2018-02-13T08:05:16.245Z,0.90
2018-02-13T08:07:44.657Z,0.93
2018-02-13T08:10:12.937Z,0.97
2018-02-13T08:12:41.302Z,1.01
2018-02-13T08:15:09.636Z,0.93
2018-02-13T08:17:38.464Z,0.92
2018-02-13T08:20:06.773Z,1.02
2018-02-13T08:22:35.127Z,1.12
2018-02-13T08:25:03.449Z,1.17
2018-02-13T08:27:31.769Z,1.17
2018-02-13T08:30:00.119Z,1.21
2018-02-13T08:32:28.434Z,1.27
2018-02-13T08:34:56.821Z,1.27
2018-02-13T08:37:25.229Z,1.35
2018-02-13T08:39:53.573Z,1.36
2018-02-13T08:42:21.893Z,1.43
2018-02-13T08:44:50.237Z,1.45
2018-02-13T08:47:18.566Z,1.42
2018-02-13T08:49:46.905Z,1.44
2018-02-13T08:52:15.225Z,2.32
2018-02-13T08:54:43.588Z,2.03
2018-02-13T08:57:11.893Z,1.91
2018-02-13T08:59:40.237Z,1.87
2018-02-13T09:02:08.558Z,1.73
2018-02-13T09:04:36.904Z,1.79
2018-02-13T09:07:05.226Z,1.82
2018-02-13T09:09:33.565Z,1.93
2018-02-13T09:12:01.889Z,2.03
2018-02-13T09:14:30.249Z,2.02
2018-02-13T09:16:58.574Z,2.12
2018-02-13T09:19:26.998Z,2.16
2018-02-13T09:21:55.325Z,2.19
2018-02-13T09:24:23.755Z,2.26
2018-02-13T09:26:52.083Z,2.25
2018-02-13T09:29:20.421Z,2.32
2018-02-13T09:31:49.126Z,2.30
2018-02-13T09:34:17.477Z,2.40
2018-02-13T09:36:45.797Z,2.51
2018-02-13T09:39:14.145Z,2.52
2018-02-13T09:41:42.470Z,2.50
2018-02-13T09:44:10.813Z,2.63
2018-02-13T09:46:39.146Z,2.62
2018-02-13T09:49:07.489Z,2.62
2018-02-13T09:51:35.902Z,2.63
2018-02-13T09:54:04.241Z,2.67
2018-02-13T09:56:32.566Z,2.72
2018-02-13T09:59:00.936Z,2.73
2018-02-13T10:01:29.309Z,2.82
2018-02-13T10:03:57.685Z,2.84
2018-02-13T10:06:26.010Z,2.89
2018-02-13T10:08:54.446Z,2.87
2018-02-13T10:11:23.533Z,2.93
2018-02-13T10:13:51.877Z,2.99
2018-02-13T10:16:20.201Z,3.03
2018-02-13T10:18:48.665Z,3.04
2018-02-13T10:21:17.041Z,3.04
2018-02-13T10:23:45.381Z,3.13
2018-02-13T10:26:13.709Z,3.18
2018-02-13T10:28:42.053Z,3.28
2018-02-13T10:31:10.373Z,3.43
2018-02-13T10:33:38.721Z,3.50
2018-02-13T10:36:08.005Z,3.52
2018-02-13T10:38:36.349Z,3.64
2018-02-13T10:41:05.481Z,3.72
2018-02-13T10:43:33.811Z,3.78
2018-02-13T10:46:03.146Z,3.74
2018-02-13T10:48:31.465Z,3.73
2018-02-13T10:50:59.823Z,3.73
2018-02-13T10:53:28.130Z,3.65
2018-02-13T10:55:56.528Z,3.70
2018-02-13T10:58:24.825Z,3.66
2018-02-13T11:00:58.717Z,3.73
2018-02-13T11:03:27.038Z,3.73
2018-02-13T11:05:55.382Z,3.83
2018-02-13T11:08:23.701Z,3.80
2018-02-13T11:10:52.047Z,3.89
2018-02-13T11:13:20.386Z,3.90
2018-02-13T11:15:49.725Z,3.91
2018-02-13T11:18:18.041Z,4.00
2018-02-13T11:20:46.385Z,3.97
2018-02-13T11:23:14.710Z,4.04
2018-02-13T11:25:43.090Z,4.06
2018-02-13T11:28:11.376Z,4.21
2018-02-13T11:30:39.721Z,4.24
2018-02-13T11:33:08.041Z,4.19
2018-02-13T11:35:36.381Z,4.25
2018-02-13T11:38:04.701Z,4.26
2018-02-13T11:40:33.046Z,4.24
2018-02-13T11:43:01.370Z,4.37
2018-02-13T11:45:29.709Z,4.35
2018-02-13T11:47:58.030Z,4.39
2018-02-13T11:50:26.374Z,4.43
2018-02-13T11:52:54.693Z,4.42
2018-02-13T11:55:23.037Z,4.46
2018-02-13T11:57:51.361Z,4.52
2018-02-13T12:00:19.706Z,4.53
2018-02-13T12:02:48.027Z,4.57
2018-02-13T12:05:16.375Z,4.60
2018-02-13T12:07:44.741Z,4.60
2018-02-13T12:10:13.114Z,4.66
2018-02-13T12:12:41.433Z,4.70
2018-02-13T12:15:09.783Z,4.75
2018-02-13T12:17:38.146Z,4.77
2018-02-13T12:20:06.485Z,4.81
2018-02-13T12:22:34.985Z,4.87
2018-02-13T12:25:03.312Z,4.87
2018-02-13T12:27:31.706Z,4.97
2018-02-13T12:30:00.028Z,4.99
2018-02-13T12:32:28.347Z,4.99
2018-02-13T12:34:56.697Z,5.06
2018-02-13T12:37:25.018Z,5.07
2018-02-13T12:39:53.336Z,5.01
2018-02-13T12:42:21.677Z,5.10
2018-02-13T12:44:49.993Z,5.11
2018-02-13T12:47:18.341Z,5.12
2018-02-13T12:49:46.657Z,5.19
2018-02-13T12:52:14.999Z,5.13
2018-02-13T12:54:43.321Z,5.21
2018-02-13T12:57:12.665Z,5.20
2018-02-13T12:59:40.994Z,5.25
2018-02-13T13:02:09.346Z,5.23
2018-02-13T13:04:37.670Z,5.18
2018-02-13T13:07:06.027Z,5.13
2018-02-13T13:09:34.385Z,5.20
2018-02-13T13:12:02.738Z,5.31
2018-02-13T13:14:31.053Z,5.24
2018-02-13T13:16:59.399Z,5.23
2018-02-13T13:19:27.726Z,5.23
2018-02-13T13:21:56.066Z,5.25
2018-02-13T13:24:24.385Z,5.34
2018-02-13T13:26:52.740Z,5.28
2018-02-13T13:29:21.082Z,5.23
2018-02-13T13:31:49.439Z,5.35
2018-02-13T13:34:17.761Z,5.28
2018-02-13T13:36:46.105Z,5.21
2018-02-13T13:39:14.435Z,5.22
2018-02-13T13:41:42.770Z,5.25
2018-02-13T13:44:11.106Z,5.20
2018-02-13T13:46:39.458Z,5.26
2018-02-13T13:49:08.557Z,5.28
2018-02-13T13:51:37.304Z,5.39
2018-02-13T13:54:05.627Z,5.45
2018-02-13T13:56:33.979Z,5.36
2018-02-13T13:59:02.303Z,5.33
2018-02-13T14:01:30.653Z,5.37
2018-02-13T14:03:58.978Z,5.24
2018-02-13T14:06:27.310Z,5.28
2018-02-13T14:08:55.669Z,5.29
2018-02-13T14:11:23.989Z,5.32
2018-02-13T14:13:52.334Z,5.35
2018-02-13T14:16:20.657Z,5.26
2018-02-13T14:18:49.022Z,5.32
2018-02-13T14:21:17.426Z,5.45
2018-02-13T14:23:45.794Z,5.50
2018-02-13T14:26:14.129Z,5.44
2018-02-13T14:28:42.658Z,5.38
2018-02-13T14:31:11.036Z,5.53
2018-02-13T14:33:39.531Z,5.44
2018-02-13T14:36:07.895Z,5.41
2018-02-13T14:38:36.285Z,5.40
2018-02-13T14:41:04.607Z,5.40
2018-02-13T14:43:32.950Z,5.44
2018-02-13T14:46:01.343Z,5.30
2018-02-13T14:48:29.685Z,5.44
2018-02-13T14:50:58.098Z,5.33
2018-02-13T14:53:26.482Z,5.24
2018-02-13T14:55:54.966Z,5.27
2018-02-13T14:58:23.321Z,5.29
2018-02-13T15:00:51.688Z,5.27
2018-02-13T15:03:20.027Z,5.17
2018-02-13T15:05:49.311Z,5.13
2018-02-13T15:08:17.709Z,5.06
2018-02-13T15:10:45.972Z,5.05
2018-02-13T15:13:14.305Z,5.09
2018-02-13T15:15:42.633Z,5.14
2018-02-13T15:18:12.954Z,5.02
2018-02-13T15:20:41.280Z,5.09
2018-02-13T15:23:09.617Z,4.89
2018-02-13T15:25:38.031Z,4.89
2018-02-13T15:28:06.381Z,4.84
2018-02-13T15:30:35.342Z,4.81
2018-02-13T15:33:03.679Z,4.83
2018-02-13T15:35:32.001Z,4.74
2018-02-13T15:38:00.354Z,4.69
2018-02-13T15:40:28.671Z,4.67
2018-02-13T15:42:57.086Z,4.67
2018-02-13T15:45:25.416Z,4.55
2018-02-13T15:47:53.763Z,4.49
2018-02-13T15:50:23.037Z,4.53
2018-02-13T15:52:51.405Z,4.40
2018-02-13T15:55:19.749Z,4.37
2018-02-13T15:57:48.113Z,4.42
2018-02-13T16:00:16.422Z,4.34
2018-02-13T16:02:45.147Z,4.27
2018-02-13T16:05:15.957Z,4.20
2018-02-13T16:07:44.313Z,4.14
2018-02-13T16:10:12.648Z,4.08
2018-02-13T16:12:41.049Z,4.07
2018-02-13T16:15:09.602Z,4.12
2018-02-13T16:17:37.929Z,4.10
2018-02-13T16:20:06.281Z,4.00
2018-02-13T16:22:34.605Z,3.95
2018-02-13T16:25:02.972Z,3.87
2018-02-13T16:27:31.308Z,3.84
2018-02-13T16:29:59.654Z,3.92
2018-02-13T16:32:27.981Z,3.89
2018-02-13T16:34:56.350Z,3.80
2018-02-13T16:37:24.673Z,3.79
2018-02-13T16:39:53.116Z,4.01
2018-02-13T16:42:21.446Z,3.88
2018-02-13T16:44:50.014Z,3.78
2018-02-13T16:47:19.413Z,3.78
2018-02-13T16:49:48.098Z,3.66
2018-02-13T16:52:16.977Z,3.67
2018-02-13T16:54:45.350Z,3.55
2018-02-13T16:57:13.734Z,3.47
2018-02-13T16:59:42.162Z,3.54
2018-02-13T17:02:10.508Z,3.51
2018-02-13T17:04:39.033Z,3.46
2018-02-13T17:07:07.534Z,3.44
2018-02-13T17:09:36.761Z,3.47
2018-02-13T17:12:05.090Z,3.35
2018-02-13T17:14:33.453Z,3.30
2018-02-13T17:17:01.802Z,3.36
2018-02-13T17:19:30.249Z,3.39
2018-02-13T17:21:58.710Z,3.51
2018-02-13T17:24:27.081Z,3.44
2018-02-13T17:26:55.436Z,3.38
2018-02-13T17:29:23.757Z,3.40
2018-02-13T17:31:52.277Z,3.37
2018-02-13T17:34:20.627Z,3.37
2018-02-13T17:36:49.917Z,3.39
2018-02-13T17:39:18.262Z,3.64
2018-02-13T17:41:46.589Z,4.20
2018-02-13T17:44:14.937Z,4.20
2018-02-13T17:46:43.322Z,4.16
2018-02-13T17:49:11.719Z,4.12
2018-02-13T17:51:41.990Z,4.02
2018-02-13T17:54:11.757Z,3.86
2018-02-13T17:56:40.086Z,3.83
2018-02-13T17:59:08.476Z,3.89
2018-02-13T18:01:36.996Z,3.88
2018-02-13T18:04:05.341Z,3.86
2018-02-13T18:06:33.678Z,3.81
2018-02-13T18:09:02.033Z,4.18
2018-02-13T18:11:30.389Z,3.76
2018-02-13T18:13:58.729Z,3.71
2018-02-13T18:16:27.059Z,3.39
2018-02-13T18:18:55.421Z,3.48
2018-02-13T18:21:23.752Z,3.46
2018-02-13T18:23:52.081Z,3.24
2018-02-13T18:26:20.436Z,3.35
2018-02-13T18:28:48.766Z,3.34
2018-02-13T18:31:17.197Z,3.26
2018-02-13T18:33:46.298Z,3.16
2018-02-13T18:36:14.650Z,2.96
2018-02-13T18:38:42.978Z,2.84
2018-02-13T18:41:11.425Z,3.00
2018-02-13T18:43:39.800Z,2.77
2018-02-13T18:46:08.149Z,2.86
2018-02-13T18:48:36.562Z,2.90
2018-02-13T18:51:04.907Z,2.95
2018-02-13T18:53:33.229Z,2.84
2018-02-13T18:56:01.587Z,2.67
2018-02-13T18:58:29.966Z,2.77
2018-02-13T19:00:58.318Z,2.81
2018-02-13T19:03:26.645Z,2.83
2018-02-13T19:05:55.892Z,2.64
2018-02-13T19:08:24.222Z,2.57
2018-02-13T19:10:52.673Z,2.68
2018-02-13T19:13:20.995Z,2.60
2018-02-13T19:15:50.324Z,2.60
2018-02-13T19:18:18.658Z,2.51
2018-02-13T19:20:47.017Z,2.63
2018-02-13T19:23:15.362Z,2.65
2018-02-13T19:25:43.733Z,2.65
2018-02-13T19:28:12.289Z,2.72
2018-02-13T19:30:40.620Z,2.71
2018-02-13T19:33:08.998Z,2.69
2018-02-13T19:35:37.365Z,2.62
2018-02-13T19:38:05.702Z,2.61
2018-02-13T19:40:34.070Z,2.55
2018-02-13T19:43:02.394Z,2.56
2018-02-13T19:45:30.748Z,2.52
2018-02-13T19:47:59.078Z,2.55
2018-02-13T19:50:27.427Z,2.54
2018-02-13T19:52:55.759Z,2.53
2018-02-13T19:55:24.190Z,2.56
2018-02-13T19:57:52.567Z,2.44
2018-02-13T20:00:20.918Z,2.48
2018-02-13T20:02:49.266Z,2.46
2018-02-13T20:05:17.701Z,2.40
2018-02-13T20:07:46.181Z,2.44
2018-02-13T20:10:14.549Z,2.43
2018-02-13T20:12:42.879Z,2.41
2018-02-13T20:15:11.243Z,2.33
2018-02-13T20:17:39.609Z,2.33
2018-02-13T20:20:07.949Z,2.35
2018-02-13T20:22:36.294Z,2.39
2018-02-13T20:25:04.642Z,2.31
2018-02-13T20:27:32.988Z,2.30
2018-02-13T20:30:01.317Z,2.34
2018-02-13T20:32:30.032Z,2.33
2018-02-13T20:34:58.358Z,2.33
2018-02-13T20:37:26.810Z,2.33
2018-02-13T20:39:55.126Z,2.33
2018-02-13T20:42:23.554Z,2.27
2018-02-13T20:44:51.886Z,2.26
2018-02-13T20:47:20.226Z,2.07
2018-02-13T20:49:48.546Z,2.01
2018-02-13T20:52:16.889Z,1.86
2018-02-13T20:54:45.213Z,1.96
2018-02-13T20:57:13.614Z,2.00
2018-02-13T20:59:41.957Z,1.96
2018-02-13T21:02:10.322Z,1.92
2018-02-13T21:04:38.691Z,1.83
2018-02-13T21:07:07.008Z,1.95
2018-02-13T21:09:35.403Z,1.97
2018-02-13T21:12:03.749Z,2.01
2018-02-13T21:14:32.074Z,1.88
2018-02-13T21:17:00.421Z,1.96
2018-02-13T21:19:28.761Z,1.94
2018-02-13T21:21:57.190Z,1.92
2018-02-13T21:24:25.558Z,1.88
2018-02-13T21:26:53.897Z,1.97
2018-02-13T21:29:22.221Z,2.01
2018-02-13T21:31:50.571Z,2.00
2018-02-13T21:34:18.894Z,2.00
2018-02-13T21:36:47.342Z,2.03
2018-02-13T21:39:15.661Z,2.00
2018-02-13T21:41:44.097Z,1.91
2018-02-13T21:44:12.428Z,1.93
2018-02-13T21:46:41.754Z,1.96
2018-02-13T21:49:10.154Z,1.91
2018-02-13T21:51:38.498Z,1.89
2018-02-13T21:54:06.909Z,1.85
2018-02-13T21:56:36.214Z,1.82
2018-02-13T21:59:04.582Z,1.74
2018-02-13T22:01:32.931Z,1.73
2018-02-13T22:04:01.620Z,1.93
2018-02-13T22:06:30.021Z,2.28
2018-02-13T22:08:58.347Z,2.22
2018-02-13T22:11:26.685Z,2.13
2018-02-13T22:13:55.053Z,2.03
2018-02-13T22:16:23.400Z,1.77
2018-02-13T22:18:51.805Z,1.83
2018-02-13T22:21:20.150Z,1.84
2018-02-13T22:23:48.553Z,1.83
2018-02-13T22:26:16.897Z,1.72
2018-02-13T22:28:45.217Z,1.57
2018-02-13T22:31:13.541Z,1.57
2018-02-13T22:33:41.965Z,1.60
2018-02-13T22:36:10.399Z,1.63
2018-02-13T22:38:38.726Z,1.66
2018-02-13T22:41:07.041Z,1.64
2018-02-13T22:43:35.390Z,1.60
2018-02-13T22:46:03.756Z,1.56
2018-02-13T22:48:32.129Z,1.58
2018-02-13T22:51:00.505Z,1.53
2018-02-13T22:53:28.841Z,1.55
2018-02-13T22:55:57.262Z,1.47
2018-02-13T22:58:25.609Z,1.47
2018-02-13T23:00:53.934Z,1.41
2018-02-13T23:03:22.341Z,1.40
2018-02-13T23:05:50.668Z,1.43
2018-02-13T23:08:19.009Z,1.39
2018-02-13T23:10:47.317Z,1.26
2018-02-13T23:13:15.658Z,1.35
2018-02-13T23:15:44.070Z,1.32
2018-02-13T23:18:12.453Z,1.36
2018-02-13T23:20:40.778Z,1.38
2018-02-13T23:23:09.115Z,1.33
2018-02-13T23:25:37.477Z,1.29
2018-02-13T23:28:05.822Z,1.19
2018-02-13T23:30:34.142Z,1.18
2018-02-13T23:33:02.510Z,1.10
2018-02-13T23:35:30.886Z,1.01
2018-02-13T23:37:59.232Z,0.97
2018-02-13T23:40:27.557Z,1.01
2018-02-13T23:42:55.896Z,1.02
2018-02-13T23:45:24.213Z,1.05
2018-02-13T23:47:52.565Z,1.03
2018-02-13T23:50:20.885Z,1.02
2018-02-13T23:52:49.313Z,1.04
2018-02-13T23:55:17.633Z,1.05
2018-02-13T23:57:45.973Z,1.01
